Time;durP1;ratioP1;P1;durP2;ratioP2;P2;SDS_P1;SDS_P2;PMS_P1;PMS_P2;Temp;Humidity;BMP_temperature;BMP_pressure;BME280_temperature;BME280_humidity;BME280_pressure;Samples;Min_cycle;Max_cycle;Signal;HPM_P1;HPM_P2
2023/06/12 00:02:17;;;;;;;8.00;6.40;;;19.40;99.90;;;;;;5053029;28;20469;-57
2023/06/12 00:04:44;;;;;;;7.00;6.37;;;19.40;99.90;;;;;;5058997;28;20448;-56
2023/06/12 00:07:10;;;;;;;7.10;6.00;;;19.30;99.90;;;;;;5049144;28;21810;-55
2023/06/12 00:09:36;;;;;;;7.73;7.03;;;19.30;99.90;;;;;;5060525;28;20528;-55
2023/06/12 00:12:02;;;;;;;6.90;5.87;;;19.30;99.90;;;;;;5055217;28;20624;-55
2023/06/12 00:14:28;;;;;;;6.80;6.20;;;19.20;99.90;;;;;;5063148;28;20758;-56
2023/06/12 00:16:54;;;;;;;6.63;5.93;;;19.20;99.90;;;;;;5049375;28;20529;-56
2023/06/12 00:19:20;;;;;;;9.53;6.20;;;19.10;99.90;;;;;;5059224;28;20214;-56
2023/06/12 00:21:46;;;;;;;7.47;6.77;;;19.00;99.90;;;;;;5051148;28;20197;-57
2023/06/12 00:24:11;;;;;;;8.90;6.33;;;19.00;99.90;;;;;;5047577;28;21114;-55
2023/06/12 00:26:40;;;;;;;7.33;6.03;;;18.90;99.90;;;;;;5053953;28;20195;-57
2023/06/12 00:29:06;;;;;;;6.67;6.07;;;18.90;99.90;;;;;;5044872;28;20203;-56
2023/06/12 00:31:31;;;;;;;7.97;6.50;;;18.90;99.90;;;;;;5051710;28;20887;-55
2023/06/12 00:33:58;;;;;;;6.70;6.10;;;18.90;99.90;;;;;;5051943;28;20223;-56
2023/06/12 00:36:23;;;;;;;7.17;6.47;;;18.90;99.90;;;;;;5050198;28;20202;-56
2023/06/12 00:38:51;;;;;;;6.30;5.80;;;18.90;99.90;;;;;;5047468;28;20479;-56
2023/06/12 00:41:17;;;;;;;6.57;5.93;;;18.80;99.90;;;;;;5049546;28;20194;-56
2023/06/12 00:43:43;;;;;;;7.17;6.43;;;18.80;99.90;;;;;;5052649;28;20450;-54
2023/06/12 00:46:10;;;;;;;7.10;6.50;;;18.80;99.90;;;;;;5050712;28;20444;-57
2023/06/12 00:48:38;;;;;;;8.20;6.80;;;18.70;99.90;;;;;;5049698;28;20659;-55
2023/06/12 00:51:03;;;;;;;7.70;6.90;;;18.70;99.90;;;;;;5050100;28;20444;-56
2023/06/12 00:53:29;;;;;;;6.80;6.20;;;18.60;99.90;;;;;;5051026;28;21239;-57
2023/06/12 00:55:55;;;;;;;7.60;6.90;;;18.60;99.90;;;;;;5050959;28;20591;-56
2023/06/12 00:58:21;;;;;;;7.63;6.83;;;18.60;99.90;;;;;;5042407;28;20304;-56
2023/06/12 01:00:48;;;;;;;7.97;6.63;;;18.60;99.90;;;;;;5053006;28;20306;-56
2023/06/12 01:03:13;;;;;;;7.73;7.03;;;18.50;99.90;;;;;;5055210;28;20970;-56
2023/06/12 01:05:42;;;;;;;7.27;6.60;;;18.40;99.90;;;;;;5049636;28;20491;-56
2023/06/12 01:08:31;;;;;;;7.70;6.70;;;18.40;99.90;;;;;;5053845;28;20191;-55
2023/06/12 01:11:08;;;;;;;7.80;6.87;;;18.30;99.90;;;;;;5049932;28;20807;-55
2023/06/12 01:13:34;;;;;;;6.90;6.20;;;18.20;99.90;;;;;;5052086;28;20482;-55
2023/06/12 01:16:00;;;;;;;6.83;6.23;;;18.20;99.90;;;;;;5053667;28;20452;-55
2023/06/12 01:18:26;;;;;;;6.47;5.80;;;18.20;99.90;;;;;;5058274;28;20439;-57
2023/06/12 01:20:55;;;;;;;7.90;6.50;;;18.20;99.90;;;;;;5049112;28;20882;-56
2023/06/12 01:23:36;;;;;;;8.27;6.77;;;18.20;99.90;;;;;;5047997;28;20675;-57
2023/06/12 01:26:25;;;;;;;8.60;6.50;;;18.00;99.90;;;;;;5051925;28;20457;-56
2023/06/12 01:29:29;;;;;;;6.23;5.63;;;18.00;99.90;;;;;;5049353;28;20561;-56
2023/06/12 01:32:01;;;;;;;6.90;6.30;;;18.00;99.90;;;;;;5055750;28;20447;-56
2023/06/12 01:34:53;;;;;;;6.60;6.00;;;17.90;99.90;;;;;;5048170;28;20935;-56
2023/06/12 01:37:43;;;;;;;9.33;5.83;;;17.90;99.90;;;;;;5043779;28;20546;-57
2023/06/12 01:40:12;;;;;;;8.30;6.97;;;17.80;99.90;;;;;;5051178;28;20762;-55
2023/06/12 01:42:38;;;;;;;8.73;6.10;;;17.80;99.90;;;;;;5057485;28;20462;-56
2023/06/12 01:45:05;;;;;;;7.03;6.43;;;17.80;99.90;;;;;;5050868;28;20532;-55
2023/06/12 01:47:31;;;;;;;7.90;6.80;;;17.80;99.90;;;;;;5041188;28;20463;-56
2023/06/12 01:49:57;;;;;;;7.27;6.47;;;17.80;99.90;;;;;;5055235;28;20538;-56
2023/06/12 01:52:22;;;;;;;10.07;6.47;;;17.80;99.90;;;;;;5055945;28;20253;-55
2023/06/12 01:54:48;;;;;;;7.13;6.27;;;17.80;99.90;;;;;;5052487;28;20297;-56
2023/06/12 01:57:14;;;;;;;6.97;5.77;;;17.80;99.90;;;;;;5056378;28;20644;-55
2023/06/12 01:59:40;;;;;;;6.23;5.73;;;17.70;99.90;;;;;;5054285;28;20664;-55
2023/06/12 02:02:05;;;;;;;5.90;5.40;;;17.70;99.90;;;;;;5052634;28;20543;-56
2023/06/12 02:04:32;;;;;;;7.70;5.77;;;17.60;99.90;;;;;;5050214;28;20193;-56
2023/06/12 02:06:57;;;;;;;6.33;5.73;;;17.60;99.90;;;;;;5051089;28;20239;-56
2023/06/12 02:09:23;;;;;;;5.97;5.37;;;17.50;99.90;;;;;;5057370;28;20454;-55
2023/06/12 02:11:49;;;;;;;6.90;6.20;;;17.60;99.90;;;;;;5052938;28;20204;-56
2023/06/12 02:14:15;;;;;;;6.50;5.90;;;17.50;99.90;;;;;;5053459;28;20248;-55
2023/06/12 02:16:41;;;;;;;6.43;5.73;;;17.50;99.90;;;;;;5049940;28;20946;-56
2023/06/12 02:19:07;;;;;;;6.97;5.87;;;17.40;99.90;;;;;;5046797;28;20448;-55
2023/06/12 02:21:32;;;;;;;6.93;6.23;;;17.40;99.90;;;;;;5048198;28;20185;-56
2023/06/12 02:23:58;;;;;;;6.50;5.90;;;17.40;99.90;;;;;;5053941;28;20185;-57
2023/06/12 02:26:23;;;;;;;6.97;5.83;;;17.30;99.90;;;;;;5048643;28;20511;-56
2023/06/12 02:29:13;;;;;;;5.70;5.20;;;17.30;99.90;;;;;;5053467;28;20193;-56
2023/06/12 02:31:39;;;;;;;11.73;6.40;;;17.20;99.90;;;;;;5056467;28;20200;-56
2023/06/12 02:34:05;;;;;;;7.27;6.03;;;17.30;99.90;;;;;;5051139;28;20493;-56
2023/06/12 02:36:30;;;;;;;7.90;5.73;;;17.20;99.90;;;;;;5052904;28;21009;-56
2023/06/12 02:38:56;;;;;;;6.77;6.10;;;17.10;99.90;;;;;;5052647;28;20483;-56
2023/06/12 02:41:23;;;;;;;6.63;5.37;;;17.10;99.90;;;;;;5053598;28;20469;-56
2023/06/12 02:43:49;;;;;;;7.93;5.40;;;17.00;99.90;;;;;;5054682;28;20457;-54
2023/06/12 02:46:14;;;;;;;7.00;6.30;;;16.90;99.90;;;;;;5056584;28;20451;-54
2023/06/12 02:48:40;;;;;;;7.63;5.50;;;16.90;99.90;;;;;;5049469;28;20215;-56
2023/06/12 02:51:05;;;;;;;6.37;5.57;;;16.90;99.90;;;;;;5054152;28;20727;-56
2023/06/12 02:53:31;;;;;;;5.50;5.10;;;16.90;99.90;;;;;;5051000;28;20202;-55
2023/06/12 02:55:57;;;;;;;6.53;6.03;;;16.90;99.90;;;;;;5054175;28;20196;-55
2023/06/12 02:58:22;;;;;;;6.57;5.60;;;16.80;99.90;;;;;;5058469;28;20204;-56
2023/06/12 03:00:48;;;;;;;6.40;5.80;;;16.80;99.90;;;;;;5046627;28;20234;-55
2023/06/12 03:03:14;;;;;;;6.53;5.93;;;16.80;99.90;;;;;;5056624;28;20259;-56
2023/06/12 03:05:41;;;;;;;6.53;5.30;;;16.80;99.90;;;;;;5057608;28;20747;-55
2023/06/12 03:08:08;;;;;;;6.83;5.10;;;16.80;99.90;;;;;;5050715;28;20275;-56
2023/06/12 03:10:35;;;;;;;7.03;5.67;;;16.80;99.90;;;;;;5056772;28;20452;-56
2023/06/12 03:13:00;;;;;;;6.60;5.87;;;16.90;99.90;;;;;;5053305;28;20817;-55
2023/06/12 03:15:27;;;;;;;6.87;6.17;;;16.90;99.90;;;;;;5042405;28;20455;-55
2023/06/12 03:17:52;;;;;;;6.30;5.70;;;16.80;99.90;;;;;;5042375;28;20218;-57
2023/06/12 03:20:18;;;;;;;7.30;5.03;;;16.80;99.90;;;;;;5043000;28;20980;-55
2023/06/12 03:22:44;;;;;;;6.87;5.40;;;16.70;99.90;;;;;;5045966;28;20266;-55
2023/06/12 03:25:10;;;;;;;6.60;5.27;;;16.70;99.90;;;;;;5045248;28;20203;-56
2023/06/12 03:27:37;;;;;;;7.70;5.30;;;16.70;99.90;;;;;;5048150;28;20831;-56
2023/06/12 03:30:03;;;;;;;10.70;5.20;;;16.70;99.90;;;;;;5041517;28;20458;-56
2023/06/12 03:32:29;;;;;;;5.93;5.33;;;16.80;99.90;;;;;;5045859;28;20452;-55
2023/06/12 03:34:55;;;;;;;9.63;4.90;;;17.00;99.90;;;;;;5046402;28;20975;-56
2023/06/12 03:37:21;;;;;;;6.47;5.27;;;17.20;99.90;;;;;;5048209;28;20456;-55
2023/06/12 03:39:47;;;;;;;7.63;5.83;;;17.30;99.90;;;;;;5047917;28;20452;-56
2023/06/12 03:42:13;;;;;;;5.43;4.93;;;17.50;99.90;;;;;;5049643;28;20470;-55
2023/06/12 03:44:39;;;;;;;5.70;5.20;;;17.70;99.90;;;;;;5045168;28;20302;-56
2023/06/12 03:47:05;;;;;;;5.83;4.90;;;17.70;99.90;;;;;;5056555;28;20539;-56
2023/06/12 03:49:30;;;;;;;6.13;4.80;;;17.90;99.90;;;;;;5060062;28;20190;-56
2023/06/12 03:51:56;;;;;;;5.80;4.53;;;18.00;99.90;;;;;;5051678;28;20209;-55
2023/06/12 03:54:22;;;;;;;6.63;5.73;;;17.90;99.90;;;;;;5056423;28;20601;-55
2023/06/12 03:56:48;;;;;;;6.63;4.60;;;17.70;99.90;;;;;;5047855;28;20193;-55
2023/06/12 03:59:15;;;;;;;6.07;5.50;;;17.50;99.90;;;;;;5050993;28;20217;-56
2023/06/12 04:01:42;;;;;;;8.73;5.83;;;17.30;99.90;;;;;;5058271;28;20447;-56
2023/06/12 04:04:09;;;;;;;7.63;5.57;;;17.20;99.90;;;;;;5055180;28;20461;-55
2023/06/12 04:06:40;;;;;;;5.90;5.30;;;17.10;99.90;;;;;;5054486;28;20453;-55
2023/06/12 04:09:07;;;;;;;5.83;5.23;;;17.20;99.90;;;;;;5051498;28;20947;-55
2023/06/12 04:11:34;;;;;;;6.57;5.73;;;17.20;99.90;;;;;;5047422;28;20808;-56
2023/06/12 04:14:01;;;;;;;6.37;5.70;;;17.10;99.90;;;;;;5050774;28;20471;-55
2023/06/12 04:16:27;;;;;;;6.30;5.70;;;17.20;99.90;;;;;;5060651;28;20454;-55
2023/06/12 04:18:53;;;;;;;7.00;6.30;;;17.20;99.90;;;;;;5051035;28;20452;-56
2023/06/12 04:21:21;;;;;;;7.67;6.83;;;17.20;99.90;;;;;;5053752;28;20970;-54
2023/06/12 04:23:47;;;;;;;7.13;5.57;;;17.20;99.90;;;;;;5046831;28;20552;-55
2023/06/12 04:26:14;;;;;;;6.97;6.37;;;17.20;99.90;;;;;;5049507;28;20452;-55
2023/06/12 04:28:41;;;;;;;7.73;6.90;;;17.20;99.90;;;;;;5049703;28;20474;-56
2023/06/12 04:31:07;;;;;;;6.63;5.70;;;17.30;99.90;;;;;;5047699;28;20460;-55
2023/06/12 04:33:35;;;;;;;6.50;5.83;;;17.40;99.90;;;;;;5045598;28;21038;-56
2023/06/12 04:36:02;;;;;;;7.00;6.10;;;17.50;99.90;;;;;;5043094;28;20451;-56
2023/06/12 04:38:30;;;;;;;7.77;6.30;;;17.40;99.90;;;;;;5049312;28;20449;-55
2023/06/12 04:40:58;;;;;;;7.50;6.57;;;17.50;99.90;;;;;;5055372;28;20532;-54
2023/06/12 04:43:24;;;;;;;6.87;6.17;;;17.50;99.90;;;;;;5050858;28;20892;-55
2023/06/12 04:45:51;;;;;;;7.47;6.03;;;17.50;99.90;;;;;;5042606;28;20459;-55
2023/06/12 04:48:18;;;;;;;8.93;6.33;;;17.60;99.90;;;;;;5044971;28;20462;-56
2023/06/12 04:50:47;;;;;;;6.93;6.33;;;17.70;99.90;;;;;;5055623;28;20458;-57
2023/06/12 04:53:17;;;;;;;6.97;6.27;;;17.80;99.90;;;;;;5054956;28;20866;-56
2023/06/12 04:55:44;;;;;;;6.73;6.13;;;17.80;99.90;;;;;;5044828;28;20479;-55
2023/06/12 04:58:10;;;;;;;7.67;6.90;;;17.80;99.90;;;;;;5051158;28;20668;-55
2023/06/12 05:00:36;;;;;;;7.00;6.30;;;18.00;99.90;;;;;;5050601;28;20835;-56
2023/06/12 05:03:02;;;;;;;8.00;6.20;;;18.00;99.90;;;;;;5050821;28;20477;-55
2023/06/12 05:05:29;;;;;;;6.77;6.17;;;18.10;99.90;;;;;;5043565;28;20196;-55
2023/06/12 05:07:54;;;;;;;9.67;6.07;;;18.20;99.90;;;;;;5047755;28;20546;-56
2023/06/12 05:10:20;;;;;;;7.47;6.67;;;18.20;99.90;;;;;;5047672;28;20550;-56
2023/06/12 05:12:46;;;;;;;8.30;7.60;;;18.20;99.90;;;;;;5045879;28;20524;-55
2023/06/12 05:15:11;;;;;;;6.27;5.67;;;18.30;99.90;;;;;;5044188;28;20232;-55
2023/06/12 05:17:37;;;;;;;7.90;7.10;;;18.30;99.90;;;;;;5046178;28;20201;-55
2023/06/12 05:20:08;;;;;;;7.00;6.40;;;18.30;99.90;;;;;;5046334;28;20189;-55
2023/06/12 05:22:35;;;;;;;6.87;6.17;;;18.40;99.90;;;;;;5047310;28;20447;-55
2023/06/12 05:25:00;;;;;;;8.47;6.17;;;18.50;99.90;;;;;;5043192;28;20951;-55
2023/06/12 05:27:26;;;;;;;7.70;6.73;;;18.60;99.90;;;;;;5043648;28;20536;-55
2023/06/12 05:29:51;;;;;;;7.10;6.40;;;18.70;99.90;;;;;;5053918;28;20212;-56
2023/06/12 05:32:17;;;;;;;8.70;6.47;;;18.80;99.90;;;;;;5043380;28;20269;-57
2023/06/12 05:34:43;;;;;;;8.00;6.37;;;19.00;99.90;;;;;;5043172;28;20222;-55
2023/06/12 05:37:08;;;;;;;7.13;6.43;;;19.10;99.90;;;;;;5047020;28;20206;-56
2023/06/12 05:39:34;;;;;;;8.43;6.30;;;19.10;99.90;;;;;;5044758;28;20189;-55
2023/06/12 05:42:00;;;;;;;8.00;6.63;;;19.30;99.90;;;;;;5043389;28;20233;-56
2023/06/12 05:44:25;;;;;;;8.80;7.00;;;19.30;99.90;;;;;;5045980;28;20216;-56
2023/06/12 05:46:52;;;;;;;6.60;6.00;;;19.40;99.90;;;;;;5044517;28;20190;-56
2023/06/12 05:49:18;;;;;;;8.13;6.57;;;19.60;99.90;;;;;;5040665;28;20193;-54
2023/06/12 05:51:44;;;;;;;7.10;6.07;;;19.70;99.90;;;;;;5046721;28;20456;-52
2023/06/12 05:54:09;;;;;;;7.60;6.87;;;19.70;99.90;;;;;;5044579;28;20497;-52
2023/06/12 05:56:35;;;;;;;6.53;5.87;;;19.80;99.90;;;;;;5041355;28;20239;-53
2023/06/12 05:59:00;;;;;;;7.33;5.97;;;20.00;99.90;;;;;;5050194;28;20270;-53
2023/06/12 06:01:26;;;;;;;11.83;6.17;;;20.20;99.90;;;;;;5050336;28;20206;-52
2023/06/12 06:03:52;;;;;;;8.40;6.23;;;20.30;99.90;;;;;;5048582;28;20915;-55
2023/06/12 06:06:18;;;;;;;6.17;5.60;;;20.50;99.90;;;;;;5044375;28;20244;-54
2023/06/12 06:08:44;;;;;;;6.43;5.70;;;20.40;99.90;;;;;;5053883;28;20488;-51
2023/06/12 06:11:10;;;;;;;12.87;6.17;;;20.40;99.90;;;;;;5049028;28;20191;-52
2023/06/12 06:13:36;;;;;;;6.73;6.00;;;20.60;99.90;;;;;;5046665;28;20524;-53
2023/06/12 06:16:02;;;;;;;8.23;6.00;;;20.80;99.90;;;;;;5042963;28;20272;-53
2023/06/12 06:18:29;;;;;;;7.67;6.00;;;20.80;99.90;;;;;;5051763;28;20463;-52
2023/06/12 06:20:54;;;;;;;7.77;6.53;;;21.00;99.90;;;;;;5052181;28;20489;-52
2023/06/12 06:23:21;;;;;;;9.07;5.60;;;21.10;99.90;;;;;;5046328;28;20826;-53
2023/06/12 06:25:47;;;;;;;9.60;6.77;;;21.30;99.90;;;;;;5047561;28;20194;-52
2023/06/12 06:28:13;;;;;;;7.20;6.50;;;21.40;99.90;;;;;;5053028;28;20449;-52
2023/06/12 06:30:38;;;;;;;7.53;6.30;;;21.20;99.90;;;;;;5046073;28;20195;-53
2023/06/12 06:33:05;;;;;;;7.70;6.03;;;21.10;99.90;;;;;;5049913;28;20842;-54
2023/06/12 06:35:30;;;;;;;8.70;5.67;;;21.30;99.90;;;;;;5051032;28;20218;-55
2023/06/12 06:37:56;;;;;;;6.33;5.60;;;21.50;99.90;;;;;;5052998;28;20514;-54
2023/06/12 06:40:22;;;;;;;5.70;5.13;;;21.60;99.90;;;;;;5048329;28;20183;-54
2023/06/12 06:42:47;;;;;;;5.80;5.30;;;21.70;99.90;;;;;;5049166;28;20202;-55
2023/06/12 06:45:13;;;;;;;6.07;5.33;;;21.80;99.90;;;;;;5049248;28;20192;-54
2023/06/12 06:47:39;;;;;;;10.57;5.70;;;22.00;99.90;;;;;;5055083;28;20589;-54
2023/06/12 06:50:05;;;;;;;7.27;4.97;;;22.30;99.90;;;;;;5052480;28;20450;-52
2023/06/12 06:52:31;;;;;;;7.90;6.10;;;22.40;99.90;;;;;;5052104;28;20548;-52
2023/06/12 06:54:56;;;;;;;7.13;5.90;;;22.40;99.90;;;;;;5060486;28;20468;-54
2023/06/12 06:57:23;;;;;;;8.80;5.20;;;22.40;99.90;;;;;;5054072;28;20193;-54
2023/06/12 06:59:48;;;;;;;6.40;5.30;;;22.60;99.90;;;;;;5059722;28;20354;-54
2023/06/12 07:02:14;;;;;;;6.10;5.23;;;22.80;99.90;;;;;;5046118;28;20544;-53
2023/06/12 07:04:40;;;;;;;6.60;5.30;;;22.90;99.90;;;;;;5055066;28;20200;-52
2023/06/12 07:07:06;;;;;;;5.93;5.33;;;22.90;99.90;;;;;;5048363;28;20501;-54
2023/06/12 07:09:31;;;;;;;6.20;5.40;;;23.00;99.90;;;;;;5047723;28;20480;-52
2023/06/12 07:11:57;;;;;;;7.67;5.77;;;23.10;99.90;;;;;;5050689;28;20463;-51
2023/06/12 07:14:22;;;;;;;5.90;5.30;;;23.30;99.90;;;;;;5054264;28;20909;-55
2023/06/12 07:16:48;;;;;;;6.60;5.90;;;23.50;99.90;;;;;;5052602;28;20392;-55
2023/06/12 07:19:13;;;;;;;6.00;5.50;;;23.40;99.90;;;;;;5047402;28;20254;-54
2023/06/12 07:21:39;;;;;;;8.07;5.00;;;23.10;99.90;;;;;;5050896;28;20721;-54
2023/06/12 07:24:05;;;;;;;5.87;5.37;;;22.90;99.90;;;;;;5053324;28;20656;-55
2023/06/12 07:26:31;;;;;;;6.67;5.07;;;23.10;99.90;;;;;;5045042;28;20547;-55
2023/06/12 07:28:57;;;;;;;7.90;5.27;;;23.50;99.90;;;;;;5055278;28;20195;-52
2023/06/12 07:31:23;;;;;;;6.80;4.97;;;23.70;99.90;;;;;;5056236;28;20197;-54
2023/06/12 07:33:48;;;;;;;7.40;5.43;;;23.90;99.90;;;;;;5053254;28;20474;-54
2023/06/12 07:36:15;;;;;;;9.93;6.03;;;24.30;99.90;;;;;;5050535;28;20199;-55
2023/06/12 07:38:41;;;;;;;7.23;5.33;;;24.50;99.90;;;;;;5057106;28;20201;-55
2023/06/12 07:41:07;;;;;;;6.23;4.80;;;24.60;99.90;;;;;;5052410;28;20448;-53
2023/06/12 07:43:35;;;;;;;7.47;4.97;;;24.80;99.90;;;;;;5047759;28;20863;-52
2023/06/12 07:46:01;;;;;;;7.30;4.73;;;24.80;99.90;;;;;;5052792;28;20447;-52
2023/06/12 07:48:27;;;;;;;6.20;5.50;;;25.00;99.90;;;;;;5048628;28;20452;-54
2023/06/12 07:50:54;;;;;;;6.53;5.50;;;25.20;99.90;;;;;;5056102;28;20450;-55
2023/06/12 07:53:20;;;;;;;8.40;4.90;;;25.00;99.90;;;;;;5053528;28;20445;-52
2023/06/12 07:55:47;;;;;;;7.83;5.30;;;25.10;99.90;;;;;;5052874;28;20469;-51
2023/06/12 07:58:13;;;;;;;7.40;4.90;;;25.30;99.90;;;;;;5052669;28;20481;-54
2023/06/12 08:00:38;;;;;;;7.63;4.87;;;25.60;99.90;;;;;;5051825;28;20530;-54
2023/06/12 08:03:04;;;;;;;8.43;4.70;;;25.80;99.90;;;;;;5055325;28;20272;-54
2023/06/12 08:05:30;;;;;;;5.20;4.80;;;25.80;99.90;;;;;;5052704;28;20202;-52
2023/06/12 08:07:55;;;;;;;4.87;4.37;;;25.70;99.90;;;;;;5052038;28;20194;-54
2023/06/12 08:10:21;;;;;;;4.60;4.10;;;25.40;99.90;;;;;;5057279;28;20218;-54
2023/06/12 08:12:47;;;;;;;7.30;5.00;;;25.10;99.90;;;;;;5048606;28;20187;-54
2023/06/12 08:15:13;;;;;;;4.90;4.50;;;25.00;99.90;;;;;;5058866;28;20476;-54
2023/06/12 08:17:42;;;;;;;5.93;4.60;;;24.90;99.90;;;;;;5061749;28;20187;-53
2023/06/12 08:20:10;;;;;;;4.50;4.10;;;24.70;99.90;;;;;;5059856;28;20538;-55
2023/06/12 08:22:36;;;;;;;4.20;3.80;;;24.60;99.90;;;;;;5057021;28;20444;-52
2023/06/12 08:25:08;;;;;;;4.87;4.27;;;24.70;99.90;;;;;;5057782;28;20946;-54
2023/06/12 08:27:34;;;;;;;12.03;5.20;;;24.90;99.90;;;;;;5051548;28;20532;-53
2023/06/12 08:30:01;;;;;;;7.07;4.70;;;25.10;99.90;;;;;;5044329;28;20541;-55
2023/06/12 08:32:27;;;;;;;6.57;4.23;;;25.60;99.90;;;;;;5049001;28;20186;-55
2023/06/12 08:34:53;;;;;;;6.13;4.00;;;25.80;99.90;;;;;;5050637;28;20471;-54
2023/06/12 08:37:20;;;;;;;4.77;4.03;;;26.00;99.90;;;;;;5052271;28;20195;-55
2023/06/12 08:39:46;;;;;;;7.13;4.30;;;25.90;99.90;;;;;;5043462;28;20453;-54
2023/06/12 08:42:16;;;;;;;6.07;3.63;;;26.00;99.90;;;;;;5055259;28;20447;-54
2023/06/12 08:44:46;;;;;;;5.07;4.13;;;26.00;99.90;;;;;;5049214;28;20808;-53
2023/06/12 08:47:14;;;;;;;5.43;3.73;;;25.60;99.90;;;;;;5044493;28;20507;-55
2023/06/12 08:49:40;;;;;;;4.10;3.70;;;25.40;99.90;;;;;;5043316;28;20453;-55
2023/06/12 08:52:10;;;;;;;4.37;3.70;;;25.40;99.90;;;;;;5045513;28;20468;-55
2023/06/12 08:54:39;;;;;;;5.10;3.90;;;25.20;99.90;;;;;;5047808;28;20510;-55
2023/06/12 08:57:07;;;;;;;5.80;4.07;;;25.30;99.90;;;;;;5038020;28;20575;-55
2023/06/12 08:59:34;;;;;;;4.20;3.80;;;25.70;99.90;;;;;;5053828;28;20477;-56
2023/06/12 09:02:01;;;;;;;3.83;3.53;;;26.10;99.90;;;;;;5044810;28;20470;-55
2023/06/12 09:04:56;;;;;;;7.30;3.73;;;26.30;99.90;;;;;;5043853;28;20450;-53
2023/06/12 09:07:24;;;;;;;5.17;4.10;;;26.40;99.90;;;;;;5042891;28;20479;-54
2023/06/12 09:09:49;;;;;;;6.63;3.40;;;26.60;99.90;;;;;;5044007;28;20855;-55
2023/06/12 09:12:15;;;;;;;3.87;3.47;;;26.90;99.90;;;;;;5050858;28;20501;-52
2023/06/12 09:14:44;;;;;;;6.70;3.60;;;27.10;99.90;;;;;;5048100;28;20660;-53
2023/06/12 09:17:11;;;;;;;8.40;3.63;;;27.30;99.90;;;;;;5052503;28;20186;-55
2023/06/12 09:19:40;;;;;;;4.10;3.70;;;27.40;99.90;;;;;;5055626;28;20494;-52
2023/06/12 09:22:06;;;;;;;5.73;3.67;;;27.30;99.90;;;;;;5053224;28;20445;-55
2023/06/12 09:24:32;;;;;;;4.93;3.80;;;27.30;99.90;;;;;;5045591;28;20456;-56
2023/06/12 09:27:00;;;;;;;5.90;3.63;;;27.40;99.90;;;;;;5051500;28;20443;-54
2023/06/12 09:29:27;;;;;;;4.17;3.73;;;27.70;99.90;;;;;;5044333;28;21030;-56
2023/06/12 09:31:52;;;;;;;4.70;3.50;;;28.00;99.90;;;;;;5046637;28;20481;-52
2023/06/12 09:34:18;;;;;;;5.17;3.37;;;27.60;99.90;;;;;;5048603;28;21014;-54
2023/06/12 09:36:45;;;;;;;8.83;4.50;;;27.60;99.90;;;;;;5051513;28;20278;-54
2023/06/12 09:39:17;;;;;;;4.80;3.73;;;27.70;99.90;;;;;;5046617;28;20508;-53
2023/06/12 09:41:49;;;;;;;4.40;3.80;;;27.60;99.90;;;;;;5055150;28;20685;-54
2023/06/12 09:44:20;;;;;;;3.87;3.47;;;27.70;99.90;;;;;;5049575;28;20456;-53
2023/06/12 09:46:46;;;;;;;5.23;3.67;;;27.50;99.90;;;;;;5049204;28;20959;-51
2023/06/12 09:49:13;;;;;;;4.10;3.10;;;27.10;99.90;;;;;;5053260;28;20448;-54
2023/06/12 09:51:42;;;;;;;5.23;3.67;;;26.80;99.90;;;;;;5051062;28;20191;-55
2023/06/12 09:54:14;;;;;;;9.63;4.20;;;26.30;99.90;;;;;;5055015;28;20565;-52
2023/06/12 09:56:40;;;;;;;4.17;3.77;;;26.30;99.90;;;;;;5050964;28;20459;-55
2023/06/12 09:59:08;;;;;;;5.50;3.80;;;26.50;99.90;;;;;;5061719;28;20487;-52
2023/06/12 10:01:39;;;;;;;5.57;3.60;;;26.50;99.90;;;;;;5056416;28;20957;-54
2023/06/12 10:04:10;;;;;;;4.20;3.90;;;26.50;99.90;;;;;;5042760;28;20537;-54
2023/06/12 10:06:38;;;;;;;4.13;3.73;;;26.60;99.90;;;;;;5054214;28;20438;-53
2023/06/12 10:09:06;;;;;;;8.13;3.63;;;26.50;99.90;;;;;;5042191;28;20454;-55
2023/06/12 10:11:33;;;;;;;3.80;3.33;;;26.40;99.90;;;;;;5054446;28;20450;-55
2023/06/12 10:13:58;;;;;;;6.47;4.27;;;26.30;99.90;;;;;;5047970;28;20568;-55
2023/06/12 10:16:25;;;;;;;10.43;4.47;;;26.40;99.90;;;;;;5045279;28;20574;-51
2023/06/12 10:18:51;;;;;;;4.00;3.10;;;26.80;99.90;;;;;;5044169;28;20197;-52
2023/06/12 10:21:19;;;;;;;4.00;3.20;;;26.90;99.90;;;;;;5053601;28;20831;-54
2023/06/12 10:23:45;;;;;;;4.90;3.40;;;26.90;99.90;;;;;;5045150;28;20198;-53
2023/06/12 10:26:11;;;;;;;11.00;4.10;;;26.70;99.90;;;;;;5055994;28;20738;-53
2023/06/12 10:28:37;;;;;;;7.60;3.30;;;26.70;99.90;;;;;;5044080;28;20444;-56
2023/06/12 10:31:12;;;;;;;13.93;4.40;;;27.00;99.90;;;;;;5052420;28;20497;-55
2023/06/12 10:33:55;;;;;;;8.00;4.03;;;27.10;99.90;;;;;;5051653;28;20331;-52
2023/06/12 10:36:21;;;;;;;12.80;5.00;;;27.10;99.90;;;;;;5052855;28;20503;-55
2023/06/12 10:38:56;;;;;;;7.63;4.43;;;27.20;99.90;;;;;;5046718;28;20987;-54
2023/06/12 10:41:32;;;;;;;4.00;3.53;;;27.10;99.90;;;;;;5045107;28;20954;-52
2023/06/12 10:43:58;;;;;;;5.30;4.00;;;27.20;99.90;;;;;;5055387;28;20505;-55
2023/06/12 10:46:42;;;;;;;7.97;4.13;;;27.40;99.90;;;;;;5062488;28;20443;-53
2023/06/12 10:49:11;;;;;;;4.23;3.90;;;27.40;99.90;;;;;;5051302;28;20455;-54
2023/06/12 10:51:40;;;;;;;5.57;4.10;;;27.20;99.90;;;;;;5051519;28;20804;-54
2023/06/12 10:54:15;;;;;;;10.30;3.93;;;27.20;99.90;;;;;;5058981;28;20566;-52
2023/06/12 10:56:58;;;;;;;3.67;3.37;;;27.30;99.90;;;;;;5049186;28;20457;-53
2023/06/12 10:59:34;;;;;;;3.90;3.50;;;27.30;99.90;;;;;;5046159;28;20464;-53
2023/06/12 11:02:00;;;;;;;5.93;3.30;;;27.40;99.90;;;;;;5056678;28;20435;-54
2023/06/12 11:04:26;;;;;;;4.00;3.70;;;27.50;99.90;;;;;;5043197;28;20513;-54
2023/06/12 11:06:52;;;;;;;5.10;3.87;;;27.50;99.90;;;;;;5050362;28;20452;-54
2023/06/12 11:09:17;;;;;;;5.77;4.10;;;27.30;99.90;;;;;;5050077;28;20277;-54
2023/06/12 11:11:50;;;;;;;6.80;3.60;;;27.20;99.90;;;;;;5051096;28;20467;-54
2023/06/12 11:14:16;;;;;;;4.60;3.27;;;27.10;99.90;;;;;;5055926;28;20210;-55
2023/06/12 11:16:45;;;;;;;4.13;3.73;;;27.10;99.90;;;;;;5057990;28;20462;-53
2023/06/12 11:19:11;;;;;;;4.00;3.17;;;26.90;99.90;;;;;;5062735;28;20194;-52
2023/06/12 11:21:40;;;;;;;3.60;3.30;;;26.70;99.90;;;;;;5053916;28;20440;-52
2023/06/12 11:24:07;;;;;;;4.07;3.73;;;26.60;99.90;;;;;;5060093;28;20669;-53
2023/06/12 11:26:33;;;;;;;4.97;3.90;;;26.50;99.90;;;;;;5056029;28;20468;-55
2023/06/12 11:29:21;;;;;;;3.87;3.47;;;26.40;99.90;;;;;;5050925;28;20449;-51
2023/06/12 11:32:04;;;;;;;5.60;3.40;;;26.50;99.90;;;;;;5061510;28;20187;-51
2023/06/12 11:34:36;;;;;;;7.30;3.50;;;26.60;99.90;;;;;;5052258;28;20469;-52
2023/06/12 11:37:16;;;;;;;4.33;3.27;;;27.00;99.90;;;;;;5052239;28;20528;-52
2023/06/12 11:39:43;;;;;;;5.23;4.07;;;27.20;99.90;;;;;;5050155;28;20468;-53
2023/06/12 11:42:12;;;;;;;6.10;3.80;;;27.20;99.90;;;;;;5054360;28;20830;-55
2023/06/12 11:44:41;;;;;;;3.67;3.13;;;27.10;99.90;;;;;;5057512;28;20452;-55
2023/06/12 11:47:07;;;;;;;5.37;4.03;;;26.90;99.90;;;;;;5055795;28;20452;-53
2023/06/12 11:49:36;;;;;;;4.33;3.53;;;26.30;99.90;;;;;;5053308;28;20442;-53
2023/06/12 11:52:03;;;;;;;6.10;4.27;;;26.00;99.90;;;;;;5058641;28;20843;-54
2023/06/12 11:54:28;;;;;;;7.13;4.10;;;25.70;99.90;;;;;;5061643;28;20517;-55
2023/06/12 11:56:54;;;;;;;4.60;3.90;;;25.80;99.90;;;;;;5046014;28;20455;-54
2023/06/12 11:59:25;;;;;;;4.20;3.50;;;26.00;99.90;;;;;;5055661;28;20262;-54
2023/06/12 12:01:51;;;;;;;4.80;4.40;;;26.10;99.90;;;;;;5051832;28;20212;-52
2023/06/12 12:04:17;;;;;;;4.63;3.60;;;26.10;99.90;;;;;;5055075;28;20560;-53
2023/06/12 12:06:50;;;;;;;11.40;4.50;;;26.20;99.90;;;;;;5061984;28;20184;-53
2023/06/12 12:09:23;;;;;;;7.43;4.67;;;26.40;99.90;;;;;;5052873;28;20522;-51
2023/06/12 12:11:49;;;;;;;8.03;4.30;;;26.30;99.90;;;;;;5052364;28;20554;-55
2023/06/12 12:14:15;;;;;;;5.27;3.40;;;26.20;99.90;;;;;;5053079;28;20516;-52
2023/06/12 12:16:43;;;;;;;4.43;3.63;;;26.30;99.90;;;;;;5057395;28;20209;-53
2023/06/12 12:19:25;;;;;;;7.20;4.30;;;26.10;99.90;;;;;;5051479;28;20265;-53
2023/06/12 12:21:51;;;;;;;4.50;4.10;;;26.10;99.90;;;;;;5051539;28;20543;-54
2023/06/12 12:24:17;;;;;;;4.83;4.37;;;25.90;99.90;;;;;;5059502;28;20484;-54
2023/06/12 12:26:48;;;;;;;5.00;4.40;;;25.70;99.90;;;;;;5056436;28;20461;-52
2023/06/12 12:29:14;;;;;;;4.70;4.03;;;25.70;99.90;;;;;;5059093;28;20237;-54
2023/06/12 12:31:40;;;;;;;5.50;4.17;;;25.70;99.90;;;;;;5052478;28;20481;-55
2023/06/12 12:34:08;;;;;;;4.93;3.73;;;25.90;99.90;;;;;;5048174;28;20222;-54
2023/06/12 12:36:34;;;;;;;6.87;4.90;;;26.10;99.90;;;;;;5055662;28;20205;-55
2023/06/12 12:39:00;;;;;;;6.07;4.67;;;26.30;99.90;;;;;;5054660;28;20451;-54
2023/06/12 12:41:26;;;;;;;4.53;4.10;;;26.30;99.90;;;;;;5054091;28;20453;-54
2023/06/12 12:43:53;;;;;;;5.43;4.30;;;26.30;99.90;;;;;;5043042;28;20200;-54
2023/06/12 12:46:20;;;;;;;4.20;3.80;;;26.40;99.90;;;;;;5051299;28;20885;-54
2023/06/12 12:48:45;;;;;;;4.40;4.00;;;26.70;99.90;;;;;;5051536;28;20458;-54